Etusivu
METAR-TAF:

METAR-TAF

Lentoasemat :

Billundin lentoasema

Billund, Tanska

Leveyspiiri: 55-44N, Pituuspiiri: 009-10E, korkeus merenpinnasta: 75 m

Tämänhetkinen sää

Tämä raportti tehtiin 37 minuuttia sitten, kello 23.20 UTC
Tuuli 18 kn idästä/koillisesta
Lämpötila 5°C
Kosteus 81%
Ilmanpaine 1021 hPa
Näkyvyys 10 km tai enemmän

METAR: EKBI 202320Z AUTO 07018KT 9999NDV OVC023/// 05/02 Q1021

Aika: 00:57 (23:57 UTC)

Sääennuste

Tämä raportti tehtiin 53 minuuttia sitten, kello 23.04 UTC
Ennuste voimassa 21. päivästä klo 00 UTC - 21. päivään klo 24 UTC
Tuuli 15 kn idästä
Näkyvyys 10 km tai enemmän
Hajonneita pilviä 2500 ft:n korkeudessa
Ajoittain
21. päivästä klo 00 UTC - 21. päivään klo 12 UTC
Tuuli 18 kn idästä puuskistuen 28 kn:hen

TAF: EKBI 202304Z 2100/2124 09015KT 9999 BKN025 TEMPO 2100/2112 09018G28KT

Säähavainnot ja -ennusteet yli 4000 lentoasemalta (METAR- ja TAF-raportit).

Käytössä olevat sääasemat on merkitty karttaan keltaisilla ja punaisilla pisteillä.

Aseta hiiri pisteen päälle nähdäksesi sääaseman nimen.

Klikkaa sitten nähdäksesi säähavainnot ja -ennusteet.

Kartan vaihtaminen: klikkaa mustalla rastilla varustettuja vihreitä pisteitä, niin voit zoomata sisään; viivalla varustettua vihreää pistettä, niin voit zoomata ulos tai vihreitä nuolia, niin pääset viereisille kartoille.


METAR-TAF: